sensor_id;sensor_type;location;lat;lon;timestamp;P1;durP1;ratioP1;P2;durP2;ratioP2
45408;SDS011;31162;51.076;3.784;2023-09-19T00:01:41;7.97;;;1.42;;
45408;SDS011;31162;51.076;3.784;2023-09-19T00:04:10;3.65;;;1.33;;
45408;SDS011;31162;51.076;3.784;2023-09-19T00:06:37;6.72;;;1.98;;
45408;SDS011;31162;51.076;3.784;2023-09-19T00:09:03;8.90;;;2.03;;
45408;SDS011;31162;51.076;3.784;2023-09-19T00:11:30;6.25;;;1.60;;
45408;SDS011;31162;51.076;3.784;2023-09-19T00:13:56;6.32;;;1.55;;
45408;SDS011;31162;51.076;3.784;2023-09-19T00:16:24;6.70;;;1.77;;
45408;SDS011;31162;51.076;3.784;2023-09-19T00:18:50;8.93;;;1.90;;
45408;SDS011;31162;51.076;3.784;2023-09-19T00:21:16;6.55;;;1.65;;
45408;SDS011;31162;51.076;3.784;2023-09-19T00:23:42;8.88;;;1.70;;
45408;SDS011;31162;51.076;3.784;2023-09-19T00:26:07;8.10;;;2.38;;
45408;SDS011;31162;51.076;3.784;2023-09-19T00:28:33;6.30;;;1.90;;
45408;SDS011;31162;51.076;3.784;2023-09-19T00:31:00;7.43;;;1.73;;
45408;SDS011;31162;51.076;3.784;2023-09-19T00:33:27;6.32;;;1.80;;
45408;SDS011;31162;51.076;3.784;2023-09-19T00:35:57;5.57;;;1.60;;
45408;SDS011;31162;51.076;3.784;2023-09-19T00:38:22;6.85;;;2.10;;
45408;SDS011;31162;51.076;3.784;2023-09-19T00:40:52;7.80;;;2.03;;
45408;SDS011;31162;51.076;3.784;2023-09-19T00:43:19;5.70;;;1.50;;
45408;SDS011;31162;51.076;3.784;2023-09-19T00:45:46;5.70;;;1.75;;
45408;SDS011;31162;51.076;3.784;2023-09-19T00:48:14;6.13;;;1.70;;
45408;SDS011;31162;51.076;3.784;2023-09-19T00:50:43;7.32;;;1.92;;
45408;SDS011;31162;51.076;3.784;2023-09-19T00:53:13;7.80;;;1.90;;
45408;SDS011;31162;51.076;3.784;2023-09-19T00:55:43;6.63;;;2.00;;
45408;SDS011;31162;51.076;3.784;2023-09-19T00:58:10;9.05;;;1.65;;
45408;SDS011;31162;51.076;3.784;2023-09-19T01:00:36;10.90;;;2.28;;
45408;SDS011;31162;51.076;3.784;2023-09-19T01:03:03;10.13;;;2.20;;
45408;SDS011;31162;51.076;3.784;2023-09-19T01:05:31;6.85;;;1.83;;
45408;SDS011;31162;51.076;3.784;2023-09-19T01:07:58;5.97;;;1.85;;
45408;SDS011;31162;51.076;3.784;2023-09-19T01:10:24;9.55;;;2.75;;
45408;SDS011;31162;51.076;3.784;2023-09-19T01:13:13;8.98;;;1.65;;
45408;SDS011;31162;51.076;3.784;2023-09-19T01:15:59;8.52;;;2.10;;
45408;SDS011;31162;51.076;3.784;2023-09-19T01:31:59;8.30;;;2.20;;
45408;SDS011;31162;51.076;3.784;2023-09-19T01:34:42;9.95;;;2.17;;
45408;SDS011;31162;51.076;3.784;2023-09-19T01:37:20;8.68;;;2.00;;
45408;SDS011;31162;51.076;3.784;2023-09-19T01:39:53;8.45;;;2.22;;
45408;SDS011;31162;51.076;3.784;2023-09-19T01:42:42;9.23;;;2.30;;
45408;SDS011;31162;51.076;3.784;2023-09-19T01:48:15;9.52;;;1.92;;
45408;SDS011;31162;51.076;3.784;2023-09-19T01:50:58;10.07;;;2.60;;
45408;SDS011;31162;51.076;3.784;2023-09-19T01:53:41;10.15;;;2.35;;
45408;SDS011;31162;51.076;3.784;2023-09-19T01:56:32;6.00;;;2.22;;
45408;SDS011;31162;51.076;3.784;2023-09-19T01:59:02;11.48;;;3.03;;
45408;SDS011;31162;51.076;3.784;2023-09-19T02:03:58;12.40;;;2.22;;
45408;SDS011;31162;51.076;3.784;2023-09-19T02:06:24;7.75;;;1.90;;
45408;SDS011;31162;51.076;3.784;2023-09-19T02:08:50;10.30;;;2.15;;
45408;SDS011;31162;51.076;3.784;2023-09-19T02:11:15;10.52;;;2.45;;
45408;SDS011;31162;51.076;3.784;2023-09-19T02:13:41;8.55;;;2.15;;
45408;SDS011;31162;51.076;3.784;2023-09-19T02:16:07;11.57;;;2.70;;
45408;SDS011;31162;51.076;3.784;2023-09-19T02:18:36;10.43;;;2.10;;
45408;SDS011;31162;51.076;3.784;2023-09-19T02:21:01;11.57;;;2.67;;
45408;SDS011;31162;51.076;3.784;2023-09-19T02:23:29;8.52;;;2.47;;
45408;SDS011;31162;51.076;3.784;2023-09-19T02:25:55;12.45;;;2.40;;
45408;SDS011;31162;51.076;3.784;2023-09-19T02:28:25;8.00;;;2.40;;
45408;SDS011;31162;51.076;3.784;2023-09-19T02:30:55;8.68;;;2.00;;
45408;SDS011;31162;51.076;3.784;2023-09-19T02:33:21;10.93;;;2.70;;
45408;SDS011;31162;51.076;3.784;2023-09-19T02:35:47;9.18;;;2.10;;
45408;SDS011;31162;51.076;3.784;2023-09-19T02:38:13;11.50;;;2.30;;
45408;SDS011;31162;51.076;3.784;2023-09-19T02:40:43;8.73;;;1.98;;
45408;SDS011;31162;51.076;3.784;2023-09-19T02:43:09;10.15;;;2.25;;
45408;SDS011;31162;51.076;3.784;2023-09-19T02:45:34;7.38;;;2.22;;
45408;SDS011;31162;51.076;3.784;2023-09-19T02:48:00;10.23;;;2.90;;
45408;SDS011;31162;51.076;3.784;2023-09-19T02:50:27;11.95;;;2.42;;
45408;SDS011;31162;51.076;3.784;2023-09-19T02:52:53;7.60;;;2.25;;
45408;SDS011;31162;51.076;3.784;2023-09-19T02:55:18;13.02;;;2.58;;
45408;SDS011;31162;51.076;3.784;2023-09-19T02:57:50;13.48;;;2.42;;
45408;SDS011;31162;51.076;3.784;2023-09-19T03:00:17;10.68;;;2.35;;
45408;SDS011;31162;51.076;3.784;2023-09-19T03:02:50;8.15;;;2.30;;
45408;SDS011;31162;51.076;3.784;2023-09-19T03:05:18;7.97;;;2.05;;
45408;SDS011;31162;51.076;3.784;2023-09-19T03:07:46;9.88;;;2.63;;
45408;SDS011;31162;51.076;3.784;2023-09-19T03:10:15;13.18;;;2.10;;
45408;SDS011;31162;51.076;3.784;2023-09-19T03:12:41;8.93;;;2.22;;
45408;SDS011;31162;51.076;3.784;2023-09-19T03:15:07;11.13;;;2.72;;
45408;SDS011;31162;51.076;3.784;2023-09-19T03:17:36;9.50;;;2.10;;
45408;SDS011;31162;51.076;3.784;2023-09-19T03:20:02;7.18;;;1.88;;
45408;SDS011;31162;51.076;3.784;2023-09-19T03:24:59;9.93;;;2.05;;
45408;SDS011;31162;51.076;3.784;2023-09-19T03:27:26;7.43;;;2.55;;
45408;SDS011;31162;51.076;3.784;2023-09-19T03:29:52;6.75;;;2.00;;
45408;SDS011;31162;51.076;3.784;2023-09-19T03:32:18;11.75;;;2.17;;
45408;SDS011;31162;51.076;3.784;2023-09-19T03:34:44;7.85;;;2.08;;
45408;SDS011;31162;51.076;3.784;2023-09-19T03:37:10;8.00;;;1.80;;
45408;SDS011;31162;51.076;3.784;2023-09-19T03:39:36;8.32;;;1.95;;
45408;SDS011;31162;51.076;3.784;2023-09-19T03:42:01;8.15;;;1.88;;
45408;SDS011;31162;51.076;3.784;2023-09-19T03:44:28;8.13;;;2.58;;
45408;SDS011;31162;51.076;3.784;2023-09-19T03:46:55;8.95;;;2.10;;
45408;SDS011;31162;51.076;3.784;2023-09-19T03:49:21;9.80;;;2.22;;
45408;SDS011;31162;51.076;3.784;2023-09-19T03:51:47;8.82;;;2.00;;
45408;SDS011;31162;51.076;3.784;2023-09-19T03:54:12;10.25;;;2.35;;
45408;SDS011;31162;51.076;3.784;2023-09-19T03:56:38;12.30;;;2.55;;
45408;SDS011;31162;51.076;3.784;2023-09-19T03:59:04;7.90;;;2.03;;
45408;SDS011;31162;51.076;3.784;2023-09-19T04:01:29;11.80;;;3.08;;
45408;SDS011;31162;51.076;3.784;2023-09-19T04:03:57;10.32;;;2.45;;
45408;SDS011;31162;51.076;3.784;2023-09-19T04:06:23;10.60;;;2.42;;
45408;SDS011;31162;51.076;3.784;2023-09-19T04:08:49;8.43;;;1.92;;
45408;SDS011;31162;51.076;3.784;2023-09-19T04:11:15;11.45;;;2.42;;
45408;SDS011;31162;51.076;3.784;2023-09-19T04:13:40;12.63;;;2.55;;
45408;SDS011;31162;51.076;3.784;2023-09-19T04:16:06;11.23;;;2.95;;
45408;SDS011;31162;51.076;3.784;2023-09-19T04:18:32;10.90;;;2.17;;
45408;SDS011;31162;51.076;3.784;2023-09-19T04:21:02;16.00;;;2.60;;
45408;SDS011;31162;51.076;3.784;2023-09-19T04:23:29;9.05;;;2.30;;
45408;SDS011;31162;51.076;3.784;2023-09-19T04:25:55;8.15;;;2.22;;
45408;SDS011;31162;51.076;3.784;2023-09-19T04:28:20;10.57;;;2.30;;
45408;SDS011;31162;51.076;3.784;2023-09-19T04:30:46;11.07;;;2.33;;
45408;SDS011;31162;51.076;3.784;2023-09-19T04:33:12;8.85;;;2.33;;
45408;SDS011;31162;51.076;3.784;2023-09-19T04:35:39;12.63;;;2.97;;
45408;SDS011;31162;51.076;3.784;2023-09-19T04:38:07;10.52;;;2.10;;
45408;SDS011;31162;51.076;3.784;2023-09-19T04:40:36;12.57;;;2.63;;
45408;SDS011;31162;51.076;3.784;2023-09-19T04:43:04;10.75;;;2.55;;
45408;SDS011;31162;51.076;3.784;2023-09-19T04:45:31;10.18;;;2.10;;
45408;SDS011;31162;51.076;3.784;2023-09-19T04:47:56;11.05;;;2.60;;
45408;SDS011;31162;51.076;3.784;2023-09-19T04:50:22;11.95;;;2.72;;
45408;SDS011;31162;51.076;3.784;2023-09-19T04:52:49;12.65;;;2.63;;
45408;SDS011;31162;51.076;3.784;2023-09-19T04:55:16;11.35;;;2.42;;
45408;SDS011;31162;51.076;3.784;2023-09-19T04:57:44;15.48;;;2.40;;
45408;SDS011;31162;51.076;3.784;2023-09-19T05:00:15;12.73;;;2.33;;
45408;SDS011;31162;51.076;3.784;2023-09-19T05:02:52;13.20;;;3.00;;
45408;SDS011;31162;51.076;3.784;2023-09-19T05:07:47;13.30;;;2.40;;
45408;SDS011;31162;51.076;3.784;2023-09-19T05:10:13;8.45;;;2.40;;
45408;SDS011;31162;51.076;3.784;2023-09-19T05:12:40;10.40;;;3.38;;
45408;SDS011;31162;51.076;3.784;2023-09-19T05:15:06;14.70;;;2.83;;
45408;SDS011;31162;51.076;3.784;2023-09-19T05:17:32;11.18;;;2.53;;
45408;SDS011;31162;51.076;3.784;2023-09-19T05:19:59;16.15;;;2.75;;
45408;SDS011;31162;51.076;3.784;2023-09-19T05:22:41;10.30;;;2.33;;
45408;SDS011;31162;51.076;3.784;2023-09-19T05:25:08;11.45;;;2.47;;
45408;SDS011;31162;51.076;3.784;2023-09-19T05:27:35;11.57;;;2.70;;
45408;SDS011;31162;51.076;3.784;2023-09-19T05:30:00;10.57;;;2.40;;
45408;SDS011;31162;51.076;3.784;2023-09-19T05:32:26;10.23;;;2.00;;
45408;SDS011;31162;51.076;3.784;2023-09-19T05:34:52;12.27;;;2.50;;
45408;SDS011;31162;51.076;3.784;2023-09-19T05:37:18;9.90;;;2.53;;
45408;SDS011;31162;51.076;3.784;2023-09-19T05:39:44;7.22;;;2.35;;
45408;SDS011;31162;51.076;3.784;2023-09-19T05:42:10;11.15;;;2.40;;
45408;SDS011;31162;51.076;3.784;2023-09-19T05:44:35;10.68;;;2.58;;
45408;SDS011;31162;51.076;3.784;2023-09-19T05:47:02;9.90;;;2.45;;
45408;SDS011;31162;51.076;3.784;2023-09-19T05:49:28;10.70;;;2.60;;
45408;SDS011;31162;51.076;3.784;2023-09-19T05:51:54;14.10;;;2.60;;
45408;SDS011;31162;51.076;3.784;2023-09-19T05:54:21;9.95;;;2.38;;
45408;SDS011;31162;51.076;3.784;2023-09-19T05:56:49;10.65;;;2.67;;
45408;SDS011;31162;51.076;3.784;2023-09-19T05:59:18;8.93;;;2.20;;
45408;SDS011;31162;51.076;3.784;2023-09-19T06:01:44;13.63;;;2.60;;
45408;SDS011;31162;51.076;3.784;2023-09-19T06:04:11;10.07;;;2.33;;
45408;SDS011;31162;51.076;3.784;2023-09-19T06:06:36;8.02;;;2.10;;
45408;SDS011;31162;51.076;3.784;2023-09-19T06:09:05;9.38;;;2.58;;
45408;SDS011;31162;51.076;3.784;2023-09-19T06:11:31;15.10;;;2.03;;
45408;SDS011;31162;51.076;3.784;2023-09-19T06:13:59;8.68;;;2.22;;
45408;SDS011;31162;51.076;3.784;2023-09-19T06:16:27;13.77;;;2.55;;
45408;SDS011;31162;51.076;3.784;2023-09-19T06:18:54;11.15;;;2.45;;
45408;SDS011;31162;51.076;3.784;2023-09-19T06:21:21;10.70;;;2.50;;
45408;SDS011;31162;51.076;3.784;2023-09-19T06:23:47;11.23;;;2.78;;
45408;SDS011;31162;51.076;3.784;2023-09-19T06:26:13;9.18;;;3.00;;
45408;SDS011;31162;51.076;3.784;2023-09-19T06:28:38;11.10;;;4.40;;
45408;SDS011;31162;51.076;3.784;2023-09-19T06:31:05;11.55;;;2.75;;
45408;SDS011;31162;51.076;3.784;2023-09-19T06:33:34;16.17;;;6.53;;
45408;SDS011;31162;51.076;3.784;2023-09-19T06:36:03;9.23;;;2.28;;
45408;SDS011;31162;51.076;3.784;2023-09-19T06:38:29;11.70;;;2.83;;
45408;SDS011;31162;51.076;3.784;2023-09-19T06:40:56;10.85;;;2.38;;
45408;SDS011;31162;51.076;3.784;2023-09-19T06:43:23;8.98;;;2.30;;
45408;SDS011;31162;51.076;3.784;2023-09-19T06:45:49;14.32;;;4.03;;
45408;SDS011;31162;51.076;3.784;2023-09-19T06:48:16;11.60;;;2.50;;
45408;SDS011;31162;51.076;3.784;2023-09-19T06:50:43;12.73;;;2.70;;
45408;SDS011;31162;51.076;3.784;2023-09-19T06:53:09;12.75;;;3.05;;
45408;SDS011;31162;51.076;3.784;2023-09-19T06:55:35;6.15;;;2.33;;
45408;SDS011;31162;51.076;3.784;2023-09-19T06:58:01;13.75;;;2.40;;
45408;SDS011;31162;51.076;3.784;2023-09-19T07:00:27;10.60;;;2.17;;
45408;SDS011;31162;51.076;3.784;2023-09-19T07:03:03;8.43;;;2.10;;
45408;SDS011;31162;51.076;3.784;2023-09-19T07:05:33;10.07;;;3.03;;
45408;SDS011;31162;51.076;3.784;2023-09-19T07:08:02;10.00;;;2.38;;
45408;SDS011;31162;51.076;3.784;2023-09-19T07:10:29;27.17;;;23.85;;
45408;SDS011;31162;51.076;3.784;2023-09-19T07:12:59;9.45;;;2.55;;
45408;SDS011;31162;51.076;3.784;2023-09-19T07:15:29;8.82;;;2.30;;
45408;SDS011;31162;51.076;3.784;2023-09-19T07:17:58;15.50;;;7.78;;
45408;SDS011;31162;51.076;3.784;2023-09-19T07:20:26;9.18;;;2.15;;
45408;SDS011;31162;51.076;3.784;2023-09-19T07:22:52;6.90;;;2.10;;
45408;SDS011;31162;51.076;3.784;2023-09-19T07:25:20;11.00;;;2.50;;
45408;SDS011;31162;51.076;3.784;2023-09-19T07:27:46;8.48;;;2.00;;
45408;SDS011;31162;51.076;3.784;2023-09-19T07:30:11;10.40;;;2.15;;
45408;SDS011;31162;51.076;3.784;2023-09-19T07:32:38;12.40;;;3.60;;
45408;SDS011;31162;51.076;3.784;2023-09-19T07:35:06;19.67;;;5.40;;
45408;SDS011;31162;51.076;3.784;2023-09-19T07:37:32;14.70;;;6.45;;
45408;SDS011;31162;51.076;3.784;2023-09-19T07:40:01;10.60;;;3.40;;
45408;SDS011;31162;51.076;3.784;2023-09-19T07:42:28;7.05;;;2.40;;
45408;SDS011;31162;51.076;3.784;2023-09-19T07:44:55;7.55;;;2.35;;
45408;SDS011;31162;51.076;3.784;2023-09-19T07:47:20;10.57;;;4.95;;
45408;SDS011;31162;51.076;3.784;2023-09-19T07:49:46;5.78;;;2.00;;
45408;SDS011;31162;51.076;3.784;2023-09-19T07:52:13;9.38;;;2.30;;
45408;SDS011;31162;51.076;3.784;2023-09-19T07:54:38;9.10;;;1.73;;
45408;SDS011;31162;51.076;3.784;2023-09-19T07:57:06;5.97;;;1.90;;
45408;SDS011;31162;51.076;3.784;2023-09-19T07:59:32;7.05;;;1.92;;
45408;SDS011;31162;51.076;3.784;2023-09-19T08:01:57;9.13;;;2.50;;
45408;SDS011;31162;51.076;3.784;2023-09-19T08:04:23;10.65;;;2.30;;
45408;SDS011;31162;51.076;3.784;2023-09-19T08:06:51;9.30;;;2.15;;
45408;SDS011;31162;51.076;3.784;2023-09-19T08:09:17;9.00;;;2.08;;
45408;SDS011;31162;51.076;3.784;2023-09-19T08:11:46;6.15;;;2.00;;
45408;SDS011;31162;51.076;3.784;2023-09-19T08:14:12;8.25;;;2.47;;
45408;SDS011;31162;51.076;3.784;2023-09-19T08:16:39;8.32;;;1.90;;
45408;SDS011;31162;51.076;3.784;2023-09-19T08:19:05;10.38;;;2.05;;
45408;SDS011;31162;51.076;3.784;2023-09-19T08:21:31;8.27;;;4.55;;
45408;SDS011;31162;51.076;3.784;2023-09-19T08:23:57;7.47;;;2.42;;
45408;SDS011;31162;51.076;3.784;2023-09-19T08:26:22;6.80;;;1.98;;
45408;SDS011;31162;51.076;3.784;2023-09-19T08:28:49;9.18;;;2.35;;
45408;SDS011;31162;51.076;3.784;2023-09-19T08:31:16;7.63;;;2.53;;
45408;SDS011;31162;51.076;3.784;2023-09-19T08:33:42;7.20;;;2.13;;
45408;SDS011;31162;51.076;3.784;2023-09-19T08:36:10;6.60;;;1.88;;
45408;SDS011;31162;51.076;3.784;2023-09-19T08:38:39;7.63;;;1.92;;
45408;SDS011;31162;51.076;3.784;2023-09-19T08:41:05;7.18;;;1.92;;
45408;SDS011;31162;51.076;3.784;2023-09-19T08:43:35;7.03;;;2.28;;
45408;SDS011;31162;51.076;3.784;2023-09-19T08:48:34;8.02;;;2.03;;
45408;SDS011;31162;51.076;3.784;2023-09-19T08:51:10;8.20;;;1.73;;
45408;SDS011;31162;51.076;3.784;2023-09-19T08:53:58;9.23;;;2.15;;
45408;SDS011;31162;51.076;3.784;2023-09-19T08:56:31;5.75;;;1.80;;
45408;SDS011;31162;51.076;3.784;2023-09-19T08:59:07;5.78;;;1.85;;
45408;SDS011;31162;51.076;3.784;2023-09-19T09:01:33;9.02;;;2.25;;
45408;SDS011;31162;51.076;3.784;2023-09-19T09:04:00;7.38;;;2.03;;
45408;SDS011;31162;51.076;3.784;2023-09-19T09:06:27;6.60;;;2.20;;
45408;SDS011;31162;51.076;3.784;2023-09-19T09:08:53;9.63;;;1.85;;
45408;SDS011;31162;51.076;3.784;2023-09-19T09:11:20;6.57;;;2.03;;
45408;SDS011;31162;51.076;3.784;2023-09-19T09:13:48;8.60;;;2.08;;
45408;SDS011;31162;51.076;3.784;2023-09-19T09:16:14;6.20;;;1.50;;
45408;SDS011;31162;51.076;3.784;2023-09-19T09:18:45;10.63;;;1.98;;
45408;SDS011;31162;51.076;3.784;2023-09-19T09:21:17;7.18;;;1.90;;
45408;SDS011;31162;51.076;3.784;2023-09-19T09:23:43;8.05;;;2.03;;
45408;SDS011;31162;51.076;3.784;2023-09-19T09:26:08;11.57;;;6.93;;
45408;SDS011;31162;51.076;3.784;2023-09-19T09:28:34;7.75;;;2.53;;
45408;SDS011;31162;51.076;3.784;2023-09-19T09:31:01;6.88;;;1.67;;
45408;SDS011;31162;51.076;3.784;2023-09-19T09:33:34;8.52;;;1.75;;
45408;SDS011;31162;51.076;3.784;2023-09-19T09:36:01;6.03;;;1.98;;
45408;SDS011;31162;51.076;3.784;2023-09-19T09:38:44;7.05;;;1.80;;
45408;SDS011;31162;51.076;3.784;2023-09-19T09:41:20;4.00;;;1.25;;
45408;SDS011;31162;51.076;3.784;2023-09-19T09:44:11;4.90;;;1.95;;
45408;SDS011;31162;51.076;3.784;2023-09-19T09:46:46;6.05;;;1.48;;
45408;SDS011;31162;51.076;3.784;2023-09-19T09:49:22;5.35;;;1.20;;
45408;SDS011;31162;51.076;3.784;2023-09-19T09:52:12;5.80;;;1.38;;
45408;SDS011;31162;51.076;3.784;2023-09-19T09:54:59;6.57;;;1.63;;
45408;SDS011;31162;51.076;3.784;2023-09-19T09:57:32;5.82;;;1.50;;
45408;SDS011;31162;51.076;3.784;2023-09-19T09:59:59;4.60;;;1.80;;
45408;SDS011;31162;51.076;3.784;2023-09-19T10:02:37;5.68;;;1.42;;
45408;SDS011;31162;51.076;3.784;2023-09-19T10:05:13;6.68;;;1.65;;
45408;SDS011;31162;51.076;3.784;2023-09-19T10:10:36;8.88;;;2.40;;
45408;SDS011;31162;51.076;3.784;2023-09-19T10:13:06;9.10;;;4.43;;
45408;SDS011;31162;51.076;3.784;2023-09-19T10:15:41;3.97;;;1.05;;
45408;SDS011;31162;51.076;3.784;2023-09-19T10:18:17;3.58;;;1.10;;
45408;SDS011;31162;51.076;3.784;2023-09-19T10:20:45;6.20;;;1.30;;
45408;SDS011;31162;51.076;3.784;2023-09-19T10:23:13;3.17;;;1.02;;
45408;SDS011;31162;51.076;3.784;2023-09-19T10:25:47;4.38;;;0.90;;
45408;SDS011;31162;51.076;3.784;2023-09-19T10:28:15;4.93;;;1.20;;
45408;SDS011;31162;51.076;3.784;2023-09-19T10:30:47;5.15;;;0.85;;
45408;SDS011;31162;51.076;3.784;2023-09-19T10:33:17;4.88;;;1.08;;
45408;SDS011;31162;51.076;3.784;2023-09-19T10:35:48;4.93;;;1.08;;
45408;SDS011;31162;51.076;3.784;2023-09-19T10:38:18;12.13;;;7.82;;
45408;SDS011;31162;51.076;3.784;2023-09-19T10:40:48;3.80;;;1.10;;
45408;SDS011;31162;51.076;3.784;2023-09-19T10:43:16;5.00;;;1.20;;
45408;SDS011;31162;51.076;3.784;2023-09-19T10:45:43;4.30;;;1.02;;
45408;SDS011;31162;51.076;3.784;2023-09-19T10:48:15;8.07;;;1.10;;
45408;SDS011;31162;51.076;3.784;2023-09-19T10:51:06;1.92;;;0.80;;
45408;SDS011;31162;51.076;3.784;2023-09-19T10:53:41;5.45;;;1.13;;
45408;SDS011;31162;51.076;3.784;2023-09-19T10:56:26;2.65;;;0.75;;
45408;SDS011;31162;51.076;3.784;2023-09-19T11:01:41;4.00;;;1.23;;
45408;SDS011;31162;51.076;3.784;2023-09-19T11:07:05;4.95;;;0.90;;
45408;SDS011;31162;51.076;3.784;2023-09-19T11:09:46;2.95;;;1.00;;
45408;SDS011;31162;51.076;3.784;2023-09-19T11:14:57;2.55;;;1.00;;
45408;SDS011;31162;51.076;3.784;2023-09-19T11:17:30;5.00;;;0.90;;
45408;SDS011;31162;51.076;3.784;2023-09-19T11:25:41;4.80;;;2.45;;
45408;SDS011;31162;51.076;3.784;2023-09-19T11:30:43;3.08;;;1.00;;
45408;SDS011;31162;51.076;3.784;2023-09-19T11:33:22;4.25;;;0.80;;
45408;SDS011;31162;51.076;3.784;2023-09-19T11:46:33;4.07;;;0.70;;
45408;SDS011;31162;51.076;3.784;2023-09-19T11:49:08;4.15;;;1.08;;
45408;SDS011;31162;51.076;3.784;2023-09-19T11:51:40;3.60;;;1.00;;
45408;SDS011;31162;51.076;3.784;2023-09-19T11:54:10;2.90;;;0.90;;
45408;SDS011;31162;51.076;3.784;2023-09-19T11:56:56;4.13;;;0.77;;
45408;SDS011;31162;51.076;3.784;2023-09-19T11:59:24;4.63;;;1.05;;
45408;SDS011;31162;51.076;3.784;2023-09-19T12:01:54;6.30;;;1.52;;
45408;SDS011;31162;51.076;3.784;2023-09-19T12:04:35;6.35;;;1.10;;
45408;SDS011;31162;51.076;3.784;2023-09-19T12:07:08;2.08;;;1.00;;
45408;SDS011;31162;51.076;3.784;2023-09-19T12:09:41;4.57;;;1.23;;
45408;SDS011;31162;51.076;3.784;2023-09-19T12:12:21;3.55;;;1.10;;
45408;SDS011;31162;51.076;3.784;2023-09-19T12:14:48;3.50;;;1.02;;
45408;SDS011;31162;51.076;3.784;2023-09-19T12:17:18;4.10;;;0.98;;
45408;SDS011;31162;51.076;3.784;2023-09-19T12:19:51;4.25;;;1.10;;
45408;SDS011;31162;51.076;3.784;2023-09-19T12:22:17;4.88;;;3.47;;
45408;SDS011;31162;51.076;3.784;2023-09-19T12:24:45;2.95;;;0.98;;
45408;SDS011;31162;51.076;3.784;2023-09-19T12:27:11;5.03;;;0.95;;
45408;SDS011;31162;51.076;3.784;2023-09-19T12:29:45;2.90;;;1.08;;
45408;SDS011;31162;51.076;3.784;2023-09-19T12:32:19;4.57;;;1.38;;
45408;SDS011;31162;51.076;3.784;2023-09-19T12:35:05;5.95;;;2.92;;
45408;SDS011;31162;51.076;3.784;2023-09-19T12:37:42;6.47;;;1.50;;
45408;SDS011;31162;51.076;3.784;2023-09-19T12:40:18;3.65;;;1.30;;
45408;SDS011;31162;51.076;3.784;2023-09-19T12:42:47;6.65;;;1.45;;
45408;SDS011;31162;51.076;3.784;2023-09-19T12:45:14;3.83;;;1.23;;
45408;SDS011;31162;51.076;3.784;2023-09-19T12:53:38;5.10;;;1.10;;
45408;SDS011;31162;51.076;3.784;2023-09-19T12:56:07;5.25;;;1.30;;
45408;SDS011;31162;51.076;3.784;2023-09-19T12:58:47;5.40;;;1.20;;
45408;SDS011;31162;51.076;3.784;2023-09-19T13:01:14;3.08;;;1.20;;
45408;SDS011;31162;51.076;3.784;2023-09-19T13:03:41;3.08;;;1.15;;
45408;SDS011;31162;51.076;3.784;2023-09-19T13:06:07;4.45;;;1.67;;
45408;SDS011;31162;51.076;3.784;2023-09-19T13:08:35;2.95;;;1.23;;
45408;SDS011;31162;51.076;3.784;2023-09-19T13:11:07;4.13;;;1.50;;
45408;SDS011;31162;51.076;3.784;2023-09-19T13:13:43;5.25;;;1.50;;
45408;SDS011;31162;51.076;3.784;2023-09-19T13:16:10;6.50;;;1.63;;
45408;SDS011;31162;51.076;3.784;2023-09-19T13:18:43;6.40;;;1.40;;
45408;SDS011;31162;51.076;3.784;2023-09-19T13:21:13;2.72;;;1.00;;
45408;SDS011;31162;51.076;3.784;2023-09-19T13:23:54;4.93;;;1.40;;
45408;SDS011;31162;51.076;3.784;2023-09-19T13:26:25;4.68;;;1.33;;
45408;SDS011;31162;51.076;3.784;2023-09-19T13:28:51;4.38;;;1.40;;
45408;SDS011;31162;51.076;3.784;2023-09-19T13:31:17;3.95;;;1.10;;
45408;SDS011;31162;51.076;3.784;2023-09-19T13:33:44;4.10;;;1.02;;
45408;SDS011;31162;51.076;3.784;2023-09-19T13:36:11;3.60;;;1.38;;
45408;SDS011;31162;51.076;3.784;2023-09-19T13:38:38;4.13;;;1.15;;
45408;SDS011;31162;51.076;3.784;2023-09-19T13:41:10;4.88;;;1.92;;
45408;SDS011;31162;51.076;3.784;2023-09-19T13:43:36;3.47;;;1.00;;
45408;SDS011;31162;51.076;3.784;2023-09-19T13:46:03;3.30;;;1.20;;
45408;SDS011;31162;51.076;3.784;2023-09-19T13:48:30;5.85;;;1.17;;
45408;SDS011;31162;51.076;3.784;2023-09-19T13:50:56;4.22;;;1.80;;
45408;SDS011;31162;51.076;3.784;2023-09-19T13:53:22;5.20;;;1.10;;
45408;SDS011;31162;51.076;3.784;2023-09-19T13:55:48;4.93;;;1.40;;
45408;SDS011;31162;51.076;3.784;2023-09-19T13:58:14;4.45;;;1.20;;
45408;SDS011;31162;51.076;3.784;2023-09-19T14:00:40;3.40;;;1.17;;
45408;SDS011;31162;51.076;3.784;2023-09-19T14:03:06;5.53;;;1.50;;
45408;SDS011;31162;51.076;3.784;2023-09-19T14:05:32;3.60;;;1.15;;
45408;SDS011;31162;51.076;3.784;2023-09-19T14:07:58;2.42;;;1.20;;
45408;SDS011;31162;51.076;3.784;2023-09-19T14:10:28;5.73;;;1.60;;
45408;SDS011;31162;51.076;3.784;2023-09-19T14:12:56;4.47;;;1.17;;
45408;SDS011;31162;51.076;3.784;2023-09-19T14:15:26;8.43;;;1.40;;
45408;SDS011;31162;51.076;3.784;2023-09-19T14:17:56;4.75;;;1.25;;
45408;SDS011;31162;51.076;3.784;2023-09-19T14:20:22;5.13;;;1.77;;
45408;SDS011;31162;51.076;3.784;2023-09-19T14:22:50;4.85;;;1.75;;
45408;SDS011;31162;51.076;3.784;2023-09-19T14:25:16;3.53;;;1.38;;
45408;SDS011;31162;51.076;3.784;2023-09-19T14:27:41;4.82;;;1.42;;
45408;SDS011;31162;51.076;3.784;2023-09-19T14:30:07;4.82;;;1.25;;
45408;SDS011;31162;51.076;3.784;2023-09-19T14:32:34;10.10;;;1.55;;
45408;SDS011;31162;51.076;3.784;2023-09-19T14:35:01;2.58;;;1.40;;
45408;SDS011;31162;51.076;3.784;2023-09-19T14:37:27;5.57;;;1.58;;
45408;SDS011;31162;51.076;3.784;2023-09-19T14:39:53;5.70;;;1.70;;
45408;SDS011;31162;51.076;3.784;2023-09-19T14:42:19;3.63;;;1.40;;
45408;SDS011;31162;51.076;3.784;2023-09-19T14:44:47;4.88;;;1.60;;
45408;SDS011;31162;51.076;3.784;2023-09-19T14:47:14;5.22;;;1.55;;
45408;SDS011;31162;51.076;3.784;2023-09-19T14:49:41;5.97;;;1.50;;
45408;SDS011;31162;51.076;3.784;2023-09-19T14:52:07;5.18;;;1.52;;
45408;SDS011;31162;51.076;3.784;2023-09-19T14:54:34;3.65;;;1.50;;
45408;SDS011;31162;51.076;3.784;2023-09-19T14:57:00;3.75;;;1.30;;
45408;SDS011;31162;51.076;3.784;2023-09-19T14:59:32;3.72;;;1.50;;
45408;SDS011;31162;51.076;3.784;2023-09-19T15:02:05;8.07;;;1.60;;
45408;SDS011;31162;51.076;3.784;2023-09-19T15:04:30;5.05;;;1.70;;
45408;SDS011;31162;51.076;3.784;2023-09-19T15:06:56;5.18;;;1.52;;
45408;SDS011;31162;51.076;3.784;2023-09-19T15:09:23;3.25;;;1.63;;
45408;SDS011;31162;51.076;3.784;2023-09-19T15:11:52;5.70;;;1.80;;
45408;SDS011;31162;51.076;3.784;2023-09-19T15:14:18;5.38;;;1.77;;
45408;SDS011;31162;51.076;3.784;2023-09-19T15:16:44;6.45;;;1.70;;
45408;SDS011;31162;51.076;3.784;2023-09-19T15:19:10;5.55;;;1.92;;
45408;SDS011;31162;51.076;3.784;2023-09-19T15:21:36;4.47;;;1.40;;
45408;SDS011;31162;51.076;3.784;2023-09-19T15:24:02;8.38;;;1.95;;
45408;SDS011;31162;51.076;3.784;2023-09-19T15:26:28;5.05;;;1.40;;
45408;SDS011;31162;51.076;3.784;2023-09-19T15:28:55;7.00;;;1.75;;
45408;SDS011;31162;51.076;3.784;2023-09-19T15:31:21;4.40;;;1.50;;
45408;SDS011;31162;51.076;3.784;2023-09-19T15:33:47;5.22;;;1.95;;
45408;SDS011;31162;51.076;3.784;2023-09-19T15:36:13;7.68;;;1.95;;
45408;SDS011;31162;51.076;3.784;2023-09-19T15:38:55;5.63;;;1.83;;
45408;SDS011;31162;51.076;3.784;2023-09-19T15:41:24;6.10;;;1.80;;
45408;SDS011;31162;51.076;3.784;2023-09-19T15:43:52;5.25;;;1.90;;
45408;SDS011;31162;51.076;3.784;2023-09-19T15:46:18;5.10;;;1.63;;
45408;SDS011;31162;51.076;3.784;2023-09-19T15:48:45;7.63;;;2.00;;
45408;SDS011;31162;51.076;3.784;2023-09-19T15:51:11;6.05;;;2.03;;
45408;SDS011;31162;51.076;3.784;2023-09-19T15:56:10;7.53;;;2.38;;
45408;SDS011;31162;51.076;3.784;2023-09-19T15:58:37;5.75;;;1.80;;